sensor_id;sensor_type;location;lat;lon;timestamp;P1;durP1;ratioP1;P2;durP2;ratioP2
78288;SDS011;67539;48.752;12.922;2023-03-23T00:00:09;11.13;;;9.93;;
78288;SDS011;67539;48.752;12.922;2023-03-23T00:02:39;11.63;;;9.90;;
78288;SDS011;67539;48.752;12.922;2023-03-23T00:05:06;10.10;;;9.10;;
78288;SDS011;67539;48.752;12.922;2023-03-23T00:07:34;10.20;;;9.10;;
78288;SDS011;67539;48.752;12.922;2023-03-23T00:10:03;10.10;;;9.17;;
78288;SDS011;67539;48.752;12.922;2023-03-23T00:12:32;10.73;;;9.57;;
78288;SDS011;67539;48.752;12.922;2023-03-23T00:14:59;9.97;;;8.93;;
78288;SDS011;67539;48.752;12.922;2023-03-23T00:17:29;10.67;;;9.23;;
78288;SDS011;67539;48.752;12.922;2023-03-23T00:19:58;10.33;;;9.13;;
78288;SDS011;67539;48.752;12.922;2023-03-23T00:22:26;11.47;;;8.90;;
78288;SDS011;67539;48.752;12.922;2023-03-23T00:24:54;12.60;;;9.83;;
78288;SDS011;67539;48.752;12.922;2023-03-23T00:27:23;11.57;;;10.13;;
78288;SDS011;67539;48.752;12.922;2023-03-23T00:29:51;12.90;;;10.53;;
78288;SDS011;67539;48.752;12.922;2023-03-23T00:32:19;11.73;;;10.53;;
78288;SDS011;67539;48.752;12.922;2023-03-23T00:34:52;11.83;;;10.50;;
78288;SDS011;67539;48.752;12.922;2023-03-23T00:37:21;12.37;;;10.83;;
78288;SDS011;67539;48.752;12.922;2023-03-23T00:39:49;11.20;;;10.03;;
78288;SDS011;67539;48.752;12.922;2023-03-23T00:42:17;11.27;;;10.07;;
78288;SDS011;67539;48.752;12.922;2023-03-23T00:44:45;11.27;;;10.17;;
78288;SDS011;67539;48.752;12.922;2023-03-23T00:47:13;12.20;;;10.67;;
78288;SDS011;67539;48.752;12.922;2023-03-23T00:49:42;10.90;;;9.80;;
78288;SDS011;67539;48.752;12.922;2023-03-23T00:52:10;11.63;;;10.53;;
78288;SDS011;67539;48.752;12.922;2023-03-23T00:54:37;16.50;;;10.40;;
78288;SDS011;67539;48.752;12.922;2023-03-23T00:57:04;12.50;;;11.03;;
78288;SDS011;67539;48.752;12.922;2023-03-23T00:59:32;11.23;;;10.10;;
78288;SDS011;67539;48.752;12.922;2023-03-23T01:02:01;12.07;;;10.43;;
78288;SDS011;67539;48.752;12.922;2023-03-23T01:04:29;14.37;;;11.40;;
78288;SDS011;67539;48.752;12.922;2023-03-23T01:06:56;11.20;;;10.07;;
78288;SDS011;67539;48.752;12.922;2023-03-23T01:09:25;12.67;;;10.63;;
78288;SDS011;67539;48.752;12.922;2023-03-23T01:11:53;12.30;;;10.67;;
78288;SDS011;67539;48.752;12.922;2023-03-23T01:14:21;13.07;;;11.07;;
78288;SDS011;67539;48.752;12.922;2023-03-23T01:16:49;12.40;;;11.10;;
78288;SDS011;67539;48.752;12.922;2023-03-23T01:19:17;14.20;;;11.60;;
78288;SDS011;67539;48.752;12.922;2023-03-23T01:21:44;16.20;;;11.77;;
78288;SDS011;67539;48.752;12.922;2023-03-23T01:24:11;12.00;;;10.83;;
78288;SDS011;67539;48.752;12.922;2023-03-23T01:26:39;11.07;;;10.00;;
78288;SDS011;67539;48.752;12.922;2023-03-23T01:29:06;11.57;;;10.07;;
78288;SDS011;67539;48.752;12.922;2023-03-23T01:31:33;12.40;;;11.10;;
78288;SDS011;67539;48.752;12.922;2023-03-23T01:34:03;11.70;;;10.33;;
78288;SDS011;67539;48.752;12.922;2023-03-23T01:36:32;12.90;;;10.80;;
78288;SDS011;67539;48.752;12.922;2023-03-23T01:39:01;12.83;;;11.53;;
78288;SDS011;67539;48.752;12.922;2023-03-23T01:41:32;14.03;;;11.50;;
78288;SDS011;67539;48.752;12.922;2023-03-23T01:44:05;13.90;;;10.87;;
78288;SDS011;67539;48.752;12.922;2023-03-23T01:46:43;11.73;;;10.50;;
78288;SDS011;67539;48.752;12.922;2023-03-23T01:49:11;13.80;;;11.60;;
78288;SDS011;67539;48.752;12.922;2023-03-23T01:51:45;13.20;;;10.90;;
78288;SDS011;67539;48.752;12.922;2023-03-23T01:54:15;11.23;;;10.10;;
78288;SDS011;67539;48.752;12.922;2023-03-23T01:56:47;17.23;;;10.90;;
78288;SDS011;67539;48.752;12.922;2023-03-23T01:59:18;13.93;;;11.50;;
78288;SDS011;67539;48.752;12.922;2023-03-23T02:01:56;12.80;;;10.80;;
78288;SDS011;67539;48.752;12.922;2023-03-23T02:04:26;13.60;;;11.33;;
78288;SDS011;67539;48.752;12.922;2023-03-23T02:06:56;12.00;;;10.73;;
78288;SDS011;67539;48.752;12.922;2023-03-23T02:09:26;11.40;;;10.30;;
78288;SDS011;67539;48.752;12.922;2023-03-23T02:11:53;12.93;;;10.80;;
78288;SDS011;67539;48.752;12.922;2023-03-23T02:14:21;14.43;;;11.53;;
78288;SDS011;67539;48.752;12.922;2023-03-23T02:16:50;11.40;;;10.20;;
78288;SDS011;67539;48.752;12.922;2023-03-23T02:22:38;11.27;;;9.80;;
78288;SDS011;67539;48.752;12.922;2023-03-23T02:25:47;12.03;;;10.10;;
78288;SDS011;67539;48.752;12.922;2023-03-23T02:28:28;12.03;;;10.60;;
78288;SDS011;67539;48.752;12.922;2023-03-23T02:31:09;11.30;;;10.10;;
78288;SDS011;67539;48.752;12.922;2023-03-23T02:33:49;11.80;;;10.57;;
78288;SDS011;67539;48.752;12.922;2023-03-23T02:36:21;12.83;;;11.20;;
78288;SDS011;67539;48.752;12.922;2023-03-23T02:38:55;12.00;;;10.33;;
78288;SDS011;67539;48.752;12.922;2023-03-23T02:41:28;13.20;;;11.23;;
78288;SDS011;67539;48.752;12.922;2023-03-23T02:43:58;17.63;;;11.70;;
78288;SDS011;67539;48.752;12.922;2023-03-23T02:46:28;12.50;;;11.20;;
78288;SDS011;67539;48.752;12.922;2023-03-23T02:48:58;12.10;;;10.50;;
78288;SDS011;67539;48.752;12.922;2023-03-23T02:51:27;12.93;;;10.70;;
78288;SDS011;67539;48.752;12.922;2023-03-23T02:53:56;12.40;;;10.83;;
78288;SDS011;67539;48.752;12.922;2023-03-23T02:56:25;12.20;;;10.90;;
78288;SDS011;67539;48.752;12.922;2023-03-23T02:58:55;11.83;;;10.53;;
78288;SDS011;67539;48.752;12.922;2023-03-23T03:04:17;13.93;;;11.07;;
78288;SDS011;67539;48.752;12.922;2023-03-23T03:06:48;12.20;;;11.00;;
78288;SDS011;67539;48.752;12.922;2023-03-23T03:09:46;11.30;;;10.20;;
78288;SDS011;67539;48.752;12.922;2023-03-23T03:12:20;11.77;;;10.57;;
78288;SDS011;67539;48.752;12.922;2023-03-23T03:14:57;12.70;;;10.90;;
78288;SDS011;67539;48.752;12.922;2023-03-23T03:17:32;11.87;;;10.60;;
78288;SDS011;67539;48.752;12.922;2023-03-23T03:20:07;12.67;;;10.00;;
78288;SDS011;67539;48.752;12.922;2023-03-23T03:22:38;12.63;;;10.63;;
78288;SDS011;67539;48.752;12.922;2023-03-23T03:25:09;12.70;;;10.50;;
78288;SDS011;67539;48.752;12.922;2023-03-23T03:27:39;12.40;;;10.30;;
78288;SDS011;67539;48.752;12.922;2023-03-23T03:30:19;13.50;;;10.30;;
78288;SDS011;67539;48.752;12.922;2023-03-23T03:32:52;11.00;;;9.60;;
78288;SDS011;67539;48.752;12.922;2023-03-23T03:35:23;12.67;;;10.67;;
78288;SDS011;67539;48.752;12.922;2023-03-23T03:37:51;10.60;;;9.50;;
78288;SDS011;67539;48.752;12.922;2023-03-23T03:40:21;11.63;;;10.43;;
78288;SDS011;67539;48.752;12.922;2023-03-23T03:42:49;13.37;;;10.00;;
78288;SDS011;67539;48.752;12.922;2023-03-23T03:45:18;13.47;;;9.73;;
78288;SDS011;67539;48.752;12.922;2023-03-23T03:47:46;11.33;;;10.23;;
78288;SDS011;67539;48.752;12.922;2023-03-23T03:50:14;11.63;;;10.40;;
78288;SDS011;67539;48.752;12.922;2023-03-23T03:52:43;11.33;;;10.13;;
78288;SDS011;67539;48.752;12.922;2023-03-23T03:55:10;14.10;;;12.10;;
78288;SDS011;67539;48.752;12.922;2023-03-23T03:57:42;15.43;;;11.20;;
78288;SDS011;67539;48.752;12.922;2023-03-23T04:00:10;11.90;;;10.50;;
78288;SDS011;67539;48.752;12.922;2023-03-23T04:02:43;12.53;;;10.23;;
78288;SDS011;67539;48.752;12.922;2023-03-23T04:05:23;12.23;;;11.03;;
78288;SDS011;67539;48.752;12.922;2023-03-23T04:07:52;13.00;;;11.13;;
78288;SDS011;67539;48.752;12.922;2023-03-23T04:10:19;13.03;;;10.50;;
78288;SDS011;67539;48.752;12.922;2023-03-23T04:12:52;10.90;;;9.77;;
78288;SDS011;67539;48.752;12.922;2023-03-23T04:15:56;13.23;;;10.97;;
78288;SDS011;67539;48.752;12.922;2023-03-23T04:18:24;11.53;;;9.73;;
78288;SDS011;67539;48.752;12.922;2023-03-23T04:20:51;12.13;;;10.40;;
78288;SDS011;67539;48.752;12.922;2023-03-23T04:23:21;13.13;;;10.70;;
78288;SDS011;67539;48.752;12.922;2023-03-23T04:25:50;12.93;;;10.70;;
78288;SDS011;67539;48.752;12.922;2023-03-23T04:28:19;12.67;;;10.90;;
78288;SDS011;67539;48.752;12.922;2023-03-23T04:31:07;15.10;;;10.50;;
78288;SDS011;67539;48.752;12.922;2023-03-23T04:33:41;15.70;;;12.40;;
78288;SDS011;67539;48.752;12.922;2023-03-23T04:36:08;12.83;;;10.70;;
78288;SDS011;67539;48.752;12.922;2023-03-23T04:38:39;13.53;;;12.13;;
78288;SDS011;67539;48.752;12.922;2023-03-23T04:41:13;14.87;;;11.53;;
78288;SDS011;67539;48.752;12.922;2023-03-23T04:43:51;12.43;;;10.50;;
78288;SDS011;67539;48.752;12.922;2023-03-23T04:46:36;10.70;;;9.60;;
78288;SDS011;67539;48.752;12.922;2023-03-23T04:49:10;12.47;;;11.17;;
78288;SDS011;67539;48.752;12.922;2023-03-23T04:51:39;10.90;;;9.83;;
78288;SDS011;67539;48.752;12.922;2023-03-23T04:54:19;13.37;;;12.03;;
78288;SDS011;67539;48.752;12.922;2023-03-23T04:56:50;13.50;;;11.47;;
78288;SDS011;67539;48.752;12.922;2023-03-23T04:59:18;14.87;;;11.03;;
78288;SDS011;67539;48.752;12.922;2023-03-23T05:01:59;13.30;;;9.97;;
78288;SDS011;67539;48.752;12.922;2023-03-23T05:04:27;13.30;;;10.13;;
78288;SDS011;67539;48.752;12.922;2023-03-23T05:07:03;11.50;;;10.40;;
78288;SDS011;67539;48.752;12.922;2023-03-23T05:09:36;12.60;;;10.23;;
78288;SDS011;67539;48.752;12.922;2023-03-23T05:12:04;12.73;;;10.80;;
78288;SDS011;67539;48.752;12.922;2023-03-23T05:14:34;11.27;;;10.00;;
78288;SDS011;67539;48.752;12.922;2023-03-23T05:17:07;12.17;;;10.73;;
78288;SDS011;67539;48.752;12.922;2023-03-23T05:19:35;12.43;;;10.53;;
78288;SDS011;67539;48.752;12.922;2023-03-23T05:22:13;11.43;;;10.33;;
78288;SDS011;67539;48.752;12.922;2023-03-23T05:24:48;11.57;;;10.37;;
78288;SDS011;67539;48.752;12.922;2023-03-23T05:27:18;16.83;;;11.97;;
78288;SDS011;67539;48.752;12.922;2023-03-23T05:29:49;11.83;;;10.17;;
78288;SDS011;67539;48.752;12.922;2023-03-23T05:32:19;13.40;;;11.90;;
78288;SDS011;67539;48.752;12.922;2023-03-23T05:34:55;13.10;;;11.70;;
78288;SDS011;67539;48.752;12.922;2023-03-23T05:37:23;12.73;;;11.40;;
78288;SDS011;67539;48.752;12.922;2023-03-23T05:39:59;12.83;;;11.53;;
78288;SDS011;67539;48.752;12.922;2023-03-23T05:42:40;13.97;;;12.00;;
78288;SDS011;67539;48.752;12.922;2023-03-23T05:45:13;13.80;;;11.33;;
78288;SDS011;67539;48.752;12.922;2023-03-23T05:47:43;12.53;;;11.30;;
78288;SDS011;67539;48.752;12.922;2023-03-23T05:50:17;12.90;;;11.20;;
78288;SDS011;67539;48.752;12.922;2023-03-23T05:52:44;14.63;;;11.40;;
78288;SDS011;67539;48.752;12.922;2023-03-23T05:55:15;13.30;;;10.70;;
78288;SDS011;67539;48.752;12.922;2023-03-23T05:57:49;13.23;;;11.90;;
78288;SDS011;67539;48.752;12.922;2023-03-23T06:00:24;12.67;;;11.37;;
78288;SDS011;67539;48.752;12.922;2023-03-23T06:03:02;11.60;;;10.50;;
78288;SDS011;67539;48.752;12.922;2023-03-23T06:05:41;12.93;;;11.10;;
78288;SDS011;67539;48.752;12.922;2023-03-23T06:08:12;11.87;;;10.63;;
78288;SDS011;67539;48.752;12.922;2023-03-23T06:10:41;14.57;;;12.50;;
78288;SDS011;67539;48.752;12.922;2023-03-23T06:13:11;13.73;;;12.27;;
78288;SDS011;67539;48.752;12.922;2023-03-23T06:15:44;17.30;;;12.07;;
78288;SDS011;67539;48.752;12.922;2023-03-23T06:18:30;12.80;;;11.47;;
78288;SDS011;67539;48.752;12.922;2023-03-23T06:21:05;14.33;;;12.57;;
78288;SDS011;67539;48.752;12.922;2023-03-23T06:23:51;18.17;;;12.53;;
78288;SDS011;67539;48.752;12.922;2023-03-23T06:26:23;14.50;;;12.43;;
78288;SDS011;67539;48.752;12.922;2023-03-23T06:28:56;18.23;;;12.50;;
78288;SDS011;67539;48.752;12.922;2023-03-23T06:31:25;19.43;;;12.43;;
78288;SDS011;67539;48.752;12.922;2023-03-23T06:33:54;15.00;;;12.10;;
78288;SDS011;67539;48.752;12.922;2023-03-23T06:36:24;15.00;;;13.37;;
78288;SDS011;67539;48.752;12.922;2023-03-23T06:39:16;14.63;;;11.90;;
78288;SDS011;67539;48.752;12.922;2023-03-23T06:41:57;16.73;;;13.70;;
78288;SDS011;67539;48.752;12.922;2023-03-23T06:44:28;17.67;;;12.30;;
78288;SDS011;67539;48.752;12.922;2023-03-23T06:46:56;14.47;;;12.47;;
78288;SDS011;67539;48.752;12.922;2023-03-23T06:49:26;14.03;;;11.63;;
78288;SDS011;67539;48.752;12.922;2023-03-23T06:52:02;13.80;;;12.30;;
78288;SDS011;67539;48.752;12.922;2023-03-23T06:54:32;14.27;;;12.47;;
78288;SDS011;67539;48.752;12.922;2023-03-23T06:57:02;15.10;;;13.17;;
78288;SDS011;67539;48.752;12.922;2023-03-23T06:59:31;14.43;;;12.87;;
78288;SDS011;67539;48.752;12.922;2023-03-23T07:01:59;16.20;;;12.17;;
78288;SDS011;67539;48.752;12.922;2023-03-23T07:04:26;13.60;;;12.20;;
78288;SDS011;67539;48.752;12.922;2023-03-23T07:07:01;13.90;;;11.80;;
78288;SDS011;67539;48.752;12.922;2023-03-23T07:09:34;14.90;;;12.43;;
78288;SDS011;67539;48.752;12.922;2023-03-23T07:12:04;14.63;;;12.30;;
78288;SDS011;67539;48.752;12.922;2023-03-23T07:14:39;15.73;;;13.27;;
78288;SDS011;67539;48.752;12.922;2023-03-23T07:17:06;14.23;;;12.63;;
78288;SDS011;67539;48.752;12.922;2023-03-23T07:19:39;14.00;;;12.50;;
78288;SDS011;67539;48.752;12.922;2023-03-23T07:22:10;14.80;;;12.97;;
78288;SDS011;67539;48.752;12.922;2023-03-23T07:24:39;14.00;;;12.50;;
78288;SDS011;67539;48.752;12.922;2023-03-23T07:27:16;14.70;;;12.60;;
78288;SDS011;67539;48.752;12.922;2023-03-23T07:29:45;15.63;;;13.07;;
78288;SDS011;67539;48.752;12.922;2023-03-23T07:32:19;16.83;;;13.03;;
78288;SDS011;67539;48.752;12.922;2023-03-23T07:34:46;15.97;;;13.30;;
78288;SDS011;67539;48.752;12.922;2023-03-23T07:37:24;13.53;;;11.73;;
78288;SDS011;67539;48.752;12.922;2023-03-23T07:39:51;15.13;;;11.60;;
78288;SDS011;67539;48.752;12.922;2023-03-23T07:42:20;13.97;;;12.47;;
78288;SDS011;67539;48.752;12.922;2023-03-23T07:44:53;12.10;;;10.90;;
78288;SDS011;67539;48.752;12.922;2023-03-23T07:47:21;12.90;;;11.43;;
78288;SDS011;67539;48.752;12.922;2023-03-23T07:49:48;14.67;;;11.70;;
78288;SDS011;67539;48.752;12.922;2023-03-23T07:52:26;14.00;;;12.07;;
78288;SDS011;67539;48.752;12.922;2023-03-23T07:54:53;12.60;;;11.30;;
78288;SDS011;67539;48.752;12.922;2023-03-23T07:57:33;12.43;;;11.07;;
78288;SDS011;67539;48.752;12.922;2023-03-23T08:00:02;13.87;;;11.20;;
78288;SDS011;67539;48.752;12.922;2023-03-23T08:02:43;12.30;;;11.03;;
78288;SDS011;67539;48.752;12.922;2023-03-23T08:05:28;11.47;;;10.33;;
78288;SDS011;67539;48.752;12.922;2023-03-23T08:08:23;13.60;;;10.53;;
78288;SDS011;67539;48.752;12.922;2023-03-23T08:11:05;13.20;;;11.83;;
78288;SDS011;67539;48.752;12.922;2023-03-23T08:13:43;11.43;;;10.27;;
78288;SDS011;67539;48.752;12.922;2023-03-23T08:16:29;11.73;;;10.53;;
78288;SDS011;67539;48.752;12.922;2023-03-23T08:19:11;11.73;;;10.53;;
78288;SDS011;67539;48.752;12.922;2023-03-23T08:21:57;13.70;;;10.90;;
78288;SDS011;67539;48.752;12.922;2023-03-23T08:24:40;12.50;;;11.20;;
78288;SDS011;67539;48.752;12.922;2023-03-23T08:27:24;11.30;;;10.10;;
78288;SDS011;67539;48.752;12.922;2023-03-23T08:30:13;11.60;;;10.60;;
78288;SDS011;67539;48.752;12.922;2023-03-23T08:32:51;10.23;;;9.23;;
78288;SDS011;67539;48.752;12.922;2023-03-23T08:35:27;11.50;;;10.30;;
78288;SDS011;67539;48.752;12.922;2023-03-23T08:38:06;11.00;;;9.90;;
78288;SDS011;67539;48.752;12.922;2023-03-23T08:40:46;12.03;;;10.50;;
78288;SDS011;67539;48.752;12.922;2023-03-23T08:43:49;10.40;;;9.30;;
78288;SDS011;67539;48.752;12.922;2023-03-23T08:46:39;12.90;;;9.43;;
78288;SDS011;67539;48.752;12.922;2023-03-23T08:49:25;10.50;;;9.50;;
78288;SDS011;67539;48.752;12.922;2023-03-23T08:52:17;10.37;;;9.47;;
78288;SDS011;67539;48.752;12.922;2023-03-23T08:55:04;10.97;;;9.90;;
78288;SDS011;67539;48.752;12.922;2023-03-23T08:57:52;10.40;;;9.50;;
78288;SDS011;67539;48.752;12.922;2023-03-23T09:00:32;11.73;;;9.27;;
78288;SDS011;67539;48.752;12.922;2023-03-23T09:03:09;10.27;;;9.27;;
78288;SDS011;67539;48.752;12.922;2023-03-23T09:06:14;9.90;;;9.00;;
78288;SDS011;67539;48.752;12.922;2023-03-23T09:08:44;9.83;;;8.90;;
78288;SDS011;67539;48.752;12.922;2023-03-23T09:11:11;9.20;;;8.30;;
78288;SDS011;67539;48.752;12.922;2023-03-23T09:13:38;10.43;;;9.43;;
78288;SDS011;67539;48.752;12.922;2023-03-23T09:16:06;10.77;;;9.67;;
78288;SDS011;67539;48.752;12.922;2023-03-23T09:18:35;9.50;;;8.60;;
78288;SDS011;67539;48.752;12.922;2023-03-23T09:21:03;9.23;;;8.43;;
78288;SDS011;67539;48.752;12.922;2023-03-23T09:23:31;10.43;;;9.33;;
78288;SDS011;67539;48.752;12.922;2023-03-23T09:25:59;11.90;;;10.10;;
78288;SDS011;67539;48.752;12.922;2023-03-23T09:28:27;10.10;;;9.10;;
78288;SDS011;67539;48.752;12.922;2023-03-23T09:30:56;10.33;;;9.43;;
78288;SDS011;67539;48.752;12.922;2023-03-23T09:33:24;11.20;;;10.20;;
78288;SDS011;67539;48.752;12.922;2023-03-23T09:35:55;9.80;;;8.70;;
78288;SDS011;67539;48.752;12.922;2023-03-23T09:38:23;9.83;;;9.03;;
78288;SDS011;67539;48.752;12.922;2023-03-23T09:40:52;10.83;;;9.83;;
78288;SDS011;67539;48.752;12.922;2023-03-23T09:43:37;10.70;;;9.67;;
78288;SDS011;67539;48.752;12.922;2023-03-23T09:46:24;9.90;;;9.03;;
78288;SDS011;67539;48.752;12.922;2023-03-23T09:49:09;10.13;;;9.23;;
78288;SDS011;67539;48.752;12.922;2023-03-23T09:51:42;11.50;;;10.50;;
78288;SDS011;67539;48.752;12.922;2023-03-23T09:54:13;11.30;;;10.30;;
78288;SDS011;67539;48.752;12.922;2023-03-23T09:56:46;9.90;;;9.10;;
78288;SDS011;67539;48.752;12.922;2023-03-23T09:59:18;9.87;;;9.07;;
78288;SDS011;67539;48.752;12.922;2023-03-23T10:01:50;10.60;;;9.60;;
78288;SDS011;67539;48.752;12.922;2023-03-23T10:04:24;10.23;;;9.13;;
78288;SDS011;67539;48.752;12.922;2023-03-23T10:06:58;10.77;;;9.77;;
78288;SDS011;67539;48.752;12.922;2023-03-23T10:09:32;9.83;;;8.83;;
78288;SDS011;67539;48.752;12.922;2023-03-23T10:12:02;10.13;;;8.90;;
78288;SDS011;67539;48.752;12.922;2023-03-23T10:14:40;10.07;;;9.17;;
78288;SDS011;67539;48.752;12.922;2023-03-23T10:17:13;11.40;;;10.23;;
78288;SDS011;67539;48.752;12.922;2023-03-23T10:19:46;9.60;;;8.70;;
78288;SDS011;67539;48.752;12.922;2023-03-23T10:22:18;11.60;;;9.73;;
78288;SDS011;67539;48.752;12.922;2023-03-23T10:24:57;10.33;;;9.43;;
78288;SDS011;67539;48.752;12.922;2023-03-23T10:27:31;10.47;;;9.40;;
78288;SDS011;67539;48.752;12.922;2023-03-23T10:30:10;9.97;;;9.00;;
78288;SDS011;67539;48.752;12.922;2023-03-23T10:32:43;10.67;;;9.67;;
78288;SDS011;67539;48.752;12.922;2023-03-23T10:35:16;9.83;;;8.97;;
78288;SDS011;67539;48.752;12.922;2023-03-23T10:37:48;10.27;;;9.37;;
78288;SDS011;67539;48.752;12.922;2023-03-23T10:40:19;9.40;;;8.60;;
78288;SDS011;67539;48.752;12.922;2023-03-23T10:42:50;9.87;;;8.97;;
78288;SDS011;67539;48.752;12.922;2023-03-23T10:45:20;10.83;;;9.90;;
78288;SDS011;67539;48.752;12.922;2023-03-23T10:47:51;10.67;;;9.77;;
78288;SDS011;67539;48.752;12.922;2023-03-23T10:50:24;9.90;;;8.90;;
78288;SDS011;67539;48.752;12.922;2023-03-23T10:52:56;9.60;;;8.60;;
78288;SDS011;67539;48.752;12.922;2023-03-23T10:55:34;10.23;;;9.30;;
78288;SDS011;67539;48.752;12.922;2023-03-23T10:58:05;9.33;;;8.43;;
78288;SDS011;67539;48.752;12.922;2023-03-23T11:00:39;10.70;;;9.80;;
78288;SDS011;67539;48.752;12.922;2023-03-23T11:06:06;9.73;;;8.80;;
78288;SDS011;67539;48.752;12.922;2023-03-23T11:08:48;9.33;;;8.50;;
78288;SDS011;67539;48.752;12.922;2023-03-23T11:11:19;10.30;;;9.33;;
78288;SDS011;67539;48.752;12.922;2023-03-23T11:13:48;11.23;;;10.30;;
78288;SDS011;67539;48.752;12.922;2023-03-23T11:16:22;10.60;;;9.70;;
78288;SDS011;67539;48.752;12.922;2023-03-23T11:18:51;10.40;;;8.73;;
78288;SDS011;67539;48.752;12.922;2023-03-23T11:21:19;10.00;;;9.10;;
78288;SDS011;67539;48.752;12.922;2023-03-23T11:23:51;9.57;;;8.73;;
78288;SDS011;67539;48.752;12.922;2023-03-23T11:26:21;10.70;;;8.57;;
78288;SDS011;67539;48.752;12.922;2023-03-23T11:28:52;9.20;;;8.40;;
78288;SDS011;67539;48.752;12.922;2023-03-23T11:31:23;26.80;;;23.40;;
78288;SDS011;67539;48.752;12.922;2023-03-23T11:33:56;18.93;;;15.57;;
78288;SDS011;67539;48.752;12.922;2023-03-23T11:36:29;8.67;;;7.90;;
78288;SDS011;67539;48.752;12.922;2023-03-23T11:38:59;8.47;;;7.77;;
78288;SDS011;67539;48.752;12.922;2023-03-23T11:41:32;9.27;;;8.37;;
78288;SDS011;67539;48.752;12.922;2023-03-23T11:44:03;7.27;;;6.63;;
78288;SDS011;67539;48.752;12.922;2023-03-23T11:46:39;9.10;;;5.00;;
78288;SDS011;67539;48.752;12.922;2023-03-23T11:49:15;7.73;;;7.03;;
78288;SDS011;67539;48.752;12.922;2023-03-23T11:51:49;9.10;;;7.60;;
78288;SDS011;67539;48.752;12.922;2023-03-23T11:54:24;6.53;;;5.93;;
78288;SDS011;67539;48.752;12.922;2023-03-23T11:56:57;6.00;;;5.50;;
78288;SDS011;67539;48.752;12.922;2023-03-23T11:59:28;12.17;;;10.70;;
78288;SDS011;67539;48.752;12.922;2023-03-23T12:02:00;12.87;;;11.47;;
78288;SDS011;67539;48.752;12.922;2023-03-23T12:04:52;8.23;;;7.07;;
78288;SDS011;67539;48.752;12.922;2023-03-23T12:07:28;5.50;;;5.10;;
78288;SDS011;67539;48.752;12.922;2023-03-23T12:10:14;2.97;;;2.73;;
78288;SDS011;67539;48.752;12.922;2023-03-23T12:12:56;2.80;;;2.60;;
78288;SDS011;67539;48.752;12.922;2023-03-23T12:15:30;3.20;;;3.00;;
78288;SDS011;67539;48.752;12.922;2023-03-23T12:18:06;2.60;;;2.40;;
78288;SDS011;67539;48.752;12.922;2023-03-23T12:20:45;2.83;;;2.50;;
78288;SDS011;67539;48.752;12.922;2023-03-23T12:23:21;2.33;;;2.23;;
78288;SDS011;67539;48.752;12.922;2023-03-23T12:31:39;2.80;;;2.60;;
78288;SDS011;67539;48.752;12.922;2023-03-23T12:34:16;3.20;;;2.90;;
78288;SDS011;67539;48.752;12.922;2023-03-23T12:36:53;7.67;;;3.00;;
78288;SDS011;67539;48.752;12.922;2023-03-23T12:42:49;3.17;;;2.83;;
78288;SDS011;67539;48.752;12.922;2023-03-23T12:45:25;3.20;;;3.00;;
78288;SDS011;67539;48.752;12.922;2023-03-23T12:48:09;3.67;;;2.93;;
78288;SDS011;67539;48.752;12.922;2023-03-23T12:50:40;2.80;;;2.60;;
78288;SDS011;67539;48.752;12.922;2023-03-23T12:53:13;3.27;;;3.07;;
78288;SDS011;67539;48.752;12.922;2023-03-23T12:55:45;3.10;;;3.00;;
78288;SDS011;67539;48.752;12.922;2023-03-23T12:58:19;3.60;;;2.97;;
78288;SDS011;67539;48.752;12.922;2023-03-23T13:00:52;2.60;;;2.50;;
78288;SDS011;67539;48.752;12.922;2023-03-23T13:03:24;2.80;;;2.70;;
78288;SDS011;67539;48.752;12.922;2023-03-23T13:05:59;3.33;;;2.83;;
78288;SDS011;67539;48.752;12.922;2023-03-23T13:08:32;3.10;;;2.77;;
78288;SDS011;67539;48.752;12.922;2023-03-23T13:11:04;2.83;;;2.73;;
78288;SDS011;67539;48.752;12.922;2023-03-23T13:13:43;2.83;;;2.73;;
78288;SDS011;67539;48.752;12.922;2023-03-23T13:16:15;2.83;;;2.63;;
78288;SDS011;67539;48.752;12.922;2023-03-23T13:18:52;3.17;;;2.97;;
78288;SDS011;67539;48.752;12.922;2023-03-23T13:21:29;3.20;;;3.00;;
78288;SDS011;67539;48.752;12.922;2023-03-23T13:23:59;2.30;;;2.20;;
78288;SDS011;67539;48.752;12.922;2023-03-23T13:26:30;2.20;;;2.10;;
78288;SDS011;67539;48.752;12.922;2023-03-23T13:29:00;2.20;;;2.10;;
78288;SDS011;67539;48.752;12.922;2023-03-23T13:31:34;2.17;;;2.07;;
78288;SDS011;67539;48.752;12.922;2023-03-23T13:34:03;3.60;;;2.00;;
78288;SDS011;67539;48.752;12.922;2023-03-23T13:36:34;1.70;;;1.60;;
78288;SDS011;67539;48.752;12.922;2023-03-23T13:39:04;4.20;;;1.80;;
78288;SDS011;67539;48.752;12.922;2023-03-23T13:41:34;2.50;;;1.90;;
78288;SDS011;67539;48.752;12.922;2023-03-23T13:44:19;4.40;;;2.20;;
78288;SDS011;67539;48.752;12.922;2023-03-23T13:47:07;4.03;;;2.33;;
78288;SDS011;67539;48.752;12.922;2023-03-23T13:49:45;2.80;;;2.53;;
78288;SDS011;67539;48.752;12.922;2023-03-23T13:52:17;8.00;;;2.60;;
78288;SDS011;67539;48.752;12.922;2023-03-23T13:54:48;2.47;;;2.30;;
78288;SDS011;67539;48.752;12.922;2023-03-23T13:57:21;2.90;;;2.30;;
78288;SDS011;67539;48.752;12.922;2023-03-23T13:59:57;2.57;;;2.37;;
78288;SDS011;67539;48.752;12.922;2023-03-23T14:02:32;2.40;;;2.30;;
78288;SDS011;67539;48.752;12.922;2023-03-23T14:07:59;2.60;;;2.10;;
78288;SDS011;67539;48.752;12.922;2023-03-23T14:10:40;2.60;;;2.40;;
78288;SDS011;67539;48.752;12.922;2023-03-23T14:13:18;2.20;;;2.10;;
78288;SDS011;67539;48.752;12.922;2023-03-23T14:15:55;2.43;;;2.27;;
78288;SDS011;67539;48.752;12.922;2023-03-23T14:18:25;2.70;;;2.50;;
78288;SDS011;67539;48.752;12.922;2023-03-23T14:20:57;4.07;;;2.50;;
78288;SDS011;67539;48.752;12.922;2023-03-23T14:23:25;1.87;;;1.77;;
78288;SDS011;67539;48.752;12.922;2023-03-23T14:25:56;2.03;;;1.80;;
78288;SDS011;67539;48.752;12.922;2023-03-23T14:28:30;1.80;;;1.70;;
78288;SDS011;67539;48.752;12.922;2023-03-23T14:31:00;2.83;;;1.40;;
78288;SDS011;67539;48.752;12.922;2023-03-23T14:33:27;1.97;;;1.80;;
78288;SDS011;67539;48.752;12.922;2023-03-23T14:35:56;4.03;;;2.00;;
78288;SDS011;67539;48.752;12.922;2023-03-23T14:38:25;2.10;;;1.77;;
78288;SDS011;67539;48.752;12.922;2023-03-23T14:41:00;1.77;;;1.67;;
78288;SDS011;67539;48.752;12.922;2023-03-23T14:43:29;3.00;;;1.80;;
78288;SDS011;67539;48.752;12.922;2023-03-23T14:46:02;2.10;;;2.00;;
78288;SDS011;67539;48.752;12.922;2023-03-23T14:48:34;2.73;;;1.73;;
78288;SDS011;67539;48.752;12.922;2023-03-23T14:51:02;2.10;;;1.53;;
78288;SDS011;67539;48.752;12.922;2023-03-23T14:53:33;1.43;;;1.40;;
78288;SDS011;67539;48.752;12.922;2023-03-23T14:56:03;3.53;;;2.00;;
78288;SDS011;67539;48.752;12.922;2023-03-23T14:58:37;3.17;;;1.80;;
78288;SDS011;67539;48.752;12.922;2023-03-23T15:01:06;2.10;;;1.67;;
78288;SDS011;67539;48.752;12.922;2023-03-23T15:03:36;1.70;;;1.60;;
78288;SDS011;67539;48.752;12.922;2023-03-23T15:06:07;2.93;;;1.70;;
78288;SDS011;67539;48.752;12.922;2023-03-23T15:08:40;2.10;;;2.00;;
78288;SDS011;67539;48.752;12.922;2023-03-23T15:11:10;2.10;;;1.83;;
78288;SDS011;67539;48.752;12.922;2023-03-23T15:13:47;2.90;;;1.73;;